»·PEaware :: N172FW KTOA-KPMD

N172FW :: KTOA-KPMD

FLIGHT INFORMATION

Flight Status: Arrived
Operator: Privately registered:
United States
More flights under this callsign
Pilot: Anonymous 29061 (29061)
Aircraft: CESSNA 172 SKYHAWK
(C172)
More flights by this aircraft type
Origin: KTOA Zamperini
United States
Destination: KPMD Palmdale AF Plant 42
United States
More flights between these airports :: More routes between these airports
Route: LAX170 LIMBO V8 WILMA V25 LAX V165 LANGE V518 PMD
File this flight plan on PilotEdge
Remarks:
Altitude:
(Current/Filed)
7,000ft
Speed:
(Current/Filed)
110kts
Departed: 21-Oct-22 11:55 AM
Arrived: 21-Oct-22 12:57 PM
Distance/Time
Traveled:
52nm/1:02
Distance/Time
To Go:
Arrived

Flight Plot

Page will automatically refresh every two minutes.

Flight plan parsing failed; only flown route is shown


Map Options




Map Legend


Flown Route
Filed Route
Departure Airport
Arrival Airport
Navaid (VOR, NDB)
Fix

Horizontal Profiles

Position Reports

Time Latitude Longitude Heading Altitude Ground
Speed
21-Oct-22 11:34 33.804677 -118.346596 302 106ft 0kts
21-Oct-22 11:35 33.804679 -118.346599 302 106ft 0kts
21-Oct-22 11:36 33.804680 -118.346603 302 106ft 0kts
21-Oct-22 11:38 33.804682 -118.346606 302 106ft 0kts
21-Oct-22 11:39 33.804684 -118.346609 302 106ft 0kts
21-Oct-22 11:40 33.804685 -118.346612 302 106ft 0kts
21-Oct-22 11:41 33.804687 -118.346615 302 106ft 0kts
21-Oct-22 11:42 33.804689 -118.346618 302 106ft 0kts
21-Oct-22 11:43 33.804690 -118.346622 302 106ft 0kts
21-Oct-22 11:44 33.804692 -118.346625 302 106ft 0kts
21-Oct-22 11:45 33.804694 -118.346628 302 106ft 0kts
21-Oct-22 11:46 33.804696 -118.346631 302 106ft 0kts
21-Oct-22 11:47 33.804698 -118.346635 302 106ft 0kts
21-Oct-22 11:48 33.804699 -118.346638 302 106ft 0kts
21-Oct-22 11:49 33.804701 -118.346641 302 106ft 0kts
21-Oct-22 11:50 33.804703 -118.346645 302 106ft 0kts
21-Oct-22 11:51 33.804705 -118.346648 302 106ft 0kts
21-Oct-22 11:52 33.805470 -118.345952 70 106ft 0kts
21-Oct-22 11:53 33.799207 -118.333413 37 106ft 0kts
21-Oct-22 11:54 33.799240 -118.333383 35 106ft 2kts
21-Oct-22 11:55 33.802270 -118.336932 308 106ft 72kts
21-Oct-22 11:55 33.815405 -118.357239 307 568ft 102kts
21-Oct-22 11:57 33.835676 -118.389006 307 1405ft 102kts
21-Oct-22 11:58 33.853038 -118.416224 307 2102ft 101kts
21-Oct-22 11:58 33.857478 -118.440599 220 2654ft 100kts
21-Oct-22 12:00 33.826790 -118.445234 182 3498ft 94kts
21-Oct-22 12:01 33.800768 -118.446502 181 4138ft 96kts
21-Oct-22 12:02 33.772717 -118.447510 181 4659ft 103kts
21-Oct-22 12:02 33.753106 -118.436827 95 5030ft 107kts
21-Oct-22 12:03 33.754959 -118.401939 82 5542ft 104kts
21-Oct-22 12:04 33.765101 -118.370960 23 6022ft 103kts
21-Oct-22 12:06 33.800582 -118.380255 341 6055ft 110kts
21-Oct-22 12:07 33.828806 -118.392060 340 6065ft 106kts
21-Oct-22 12:07 33.851594 -118.401580 340 6271ft 95kts
21-Oct-22 12:08 33.878140 -118.412675 340 6716ft 102kts
21-Oct-22 12:09 33.905802 -118.422276 358 7071ft 112kts
21-Oct-22 12:10 33.937450 -118.423791 357 7065ft 113kts
21-Oct-22 12:11 33.969044 -118.425289 356 7066ft 113kts
21-Oct-22 12:12 34.000491 -118.428100 355 7067ft 113kts
21-Oct-22 12:13 34.031947 -118.430871 355 7066ft 113kts
21-Oct-22 12:14 34.063434 -118.433649 355 7067ft 113kts
21-Oct-22 12:15 34.094907 -118.436425 355 7067ft 113kts
21-Oct-22 12:16 34.126256 -118.439189 355 7067ft 113kts
21-Oct-22 12:17 34.157750 -118.441967 355 7066ft 113kts
21-Oct-22 12:18 34.189243 -118.444750 355 7067ft 113kts
21-Oct-22 12:19 34.220621 -118.447521 355 7067ft 113kts
21-Oct-22 12:20 34.252036 -118.450603 354 7067ft 113kts
21-Oct-22 12:21 34.283414 -118.454116 354 7067ft 113kts
21-Oct-22 12:22 34.314698 -118.457610 354 7067ft 113kts
21-Oct-22 12:23 34.346107 -118.461129 354 7067ft 113kts
21-Oct-22 12:24 34.377073 -118.461233 35 7065ft 113kts
21-Oct-22 12:25 34.396162 -118.431145 53 7068ft 113kts
21-Oct-22 12:26 34.414788 -118.400371 53 7066ft 113kts
21-Oct-22 12:27 34.434216 -118.370179 51 7067ft 113kts
21-Oct-22 12:28 34.453722 -118.340162 51 7067ft 113kts
21-Oct-22 12:29 34.473181 -118.310202 51 7066ft 113kts
21-Oct-22 12:30 34.492682 -118.280172 51 7067ft 113kts
21-Oct-22 12:31 34.512180 -118.250143 51 7066ft 113kts
21-Oct-22 12:32 34.531972 -118.220491 50 7067ft 113kts
21-Oct-22 12:33 34.550929 -118.192659 50 7062ft 100kts
21-Oct-22 12:34 34.568572 -118.166970 50 7078ft 102kts
21-Oct-22 12:35 34.581660 -118.135929 69 7073ft 105kts
21-Oct-22 12:36 34.592291 -118.102455 68 7068ft 106kts
21-Oct-22 12:37 34.603253 -118.068133 68 6835ft 115kts
21-Oct-22 12:38 34.614640 -118.032507 68 6307ft 112kts
21-Oct-22 12:39 34.627036 -117.994886 67 5819ft 125kts
21-Oct-22 12:40 34.638656 -117.958995 81 5382ft 102kts
21-Oct-22 12:41 34.641060 -117.925675 86 5081ft 103kts
21-Oct-22 12:42 34.642446 -117.895924 86 5067ft 77kts
21-Oct-22 12:43 34.644240 -117.871830 83 5067ft 65kts
21-Oct-22 12:44 34.645912 -117.850827 94 4775ft 81kts
21-Oct-22 12:45 34.635062 -117.822581 135 4940ft 84kts
21-Oct-22 12:46 34.623797 -117.798067 67 4991ft 99kts
21-Oct-22 12:47 34.646585 -117.802490 312 4984ft 106kts
21-Oct-22 12:48 34.647820 -117.836996 262 4979ft 104kts
21-Oct-22 12:49 34.644256 -117.871514 262 4983ft 101kts
21-Oct-22 12:50 34.641068 -117.905921 264 4638ft 102kts
21-Oct-22 12:51 34.639295 -117.938981 268 4365ft 94kts
21-Oct-22 12:52 34.638747 -117.970900 268 4067ft 97kts
21-Oct-22 12:53 34.636100 -118.003644 262 3827ft 90kts
21-Oct-22 12:54 34.635159 -118.033414 265 3328ft 77kts
21-Oct-22 12:55 34.633479 -118.059186 264 2929ft 75kts
21-Oct-22 12:56 34.632377 -118.078994 265 2546ft 24kts
21-Oct-22 12:57 34.632564 -118.082625 320 2546ft 5kts
21-Oct-22 12:58 34.632948 -118.082833 348 2546ft 0kts
21-Oct-22 12:59 34.639467 -118.081586 348 2546ft 0kts
21-Oct-22 13:00 34.639467 -118.081586 348 2546ft 0kts
21-Oct-22 13:01 34.639467 -118.081586 348 2546ft 0kts

Navigation Log

Ident Type
Flight plan parsing failed, navigation log unavailable